sensor_id;sensor_type;location;lat;lon;timestamp;pressure;altitude;pressure_sealevel;temperature;humidity
32324;BME280;25666;44.350;9.222;2023-04-24T00:00:01;100921.88;;;15.37;100.00
32324;BME280;25666;44.350;9.222;2023-04-24T00:02:26;100909.09;;;15.40;100.00
32324;BME280;25666;44.350;9.222;2023-04-24T00:04:52;100907.94;;;15.44;100.00
32324;BME280;25666;44.350;9.222;2023-04-24T00:07:17;100897.94;;;15.43;100.00
32324;BME280;25666;44.350;9.222;2023-04-24T00:09:43;100905.13;;;15.44;100.00
32324;BME280;25666;44.350;9.222;2023-04-24T00:12:10;100900.72;;;15.43;100.00
32324;BME280;25666;44.350;9.222;2023-04-24T00:14:35;100913.13;;;15.42;100.00
32324;BME280;25666;44.350;9.222;2023-04-24T00:17:01;100915.25;;;15.49;100.00
32324;BME280;25666;44.350;9.222;2023-04-24T00:19:28;100899.16;;;15.46;100.00
32324;BME280;25666;44.350;9.222;2023-04-24T00:21:54;100887.41;;;15.37;100.00
32324;BME280;25666;44.350;9.222;2023-04-24T00:24:20;100899.91;;;15.43;100.00
32324;BME280;25666;44.350;9.222;2023-04-24T00:26:45;100896.72;;;15.44;100.00
32324;BME280;25666;44.350;9.222;2023-04-24T00:29:11;100896.72;;;15.44;100.00
32324;BME280;25666;44.350;9.222;2023-04-24T00:31:37;100907.56;;;15.46;100.00
32324;BME280;25666;44.350;9.222;2023-04-24T00:34:03;100906.41;;;15.47;100.00
32324;BME280;25666;44.350;9.222;2023-04-24T00:36:29;100883.22;;;15.50;100.00
32324;BME280;25666;44.350;9.222;2023-04-24T00:38:56;100872.81;;;15.50;100.00
32324;BME280;25666;44.350;9.222;2023-04-24T00:41:22;100867.56;;;15.49;100.00
32324;BME280;25666;44.350;9.222;2023-04-24T00:43:49;100862.44;;;15.54;100.00
32324;BME280;25666;44.350;9.222;2023-04-24T00:46:16;100862.06;;;15.56;100.00
32324;BME280;25666;44.350;9.222;2023-04-24T00:48:43;100858.84;;;15.58;100.00
32324;BME280;25666;44.350;9.222;2023-04-24T00:51:08;100860.09;;;15.60;100.00
32324;BME280;25666;44.350;9.222;2023-04-24T00:53:34;100852.06;;;15.59;100.00
32324;BME280;25666;44.350;9.222;2023-04-24T00:55:59;100841.19;;;15.53;100.00
32324;BME280;25666;44.350;9.222;2023-04-24T00:58:25;100837.53;;;15.49;100.00
32324;BME280;25666;44.350;9.222;2023-04-24T01:00:52;100832.13;;;15.37;100.00
32324;BME280;25666;44.350;9.222;2023-04-24T01:03:20;100844.16;;;15.38;100.00
32324;BME280;25666;44.350;9.222;2023-04-24T01:05:47;100848.50;;;15.35;100.00
32324;BME280;25666;44.350;9.222;2023-04-24T01:08:13;100838.16;;;15.39;100.00
32324;BME280;25666;44.350;9.222;2023-04-24T01:10:40;100840.84;;;15.32;100.00
32324;BME280;25666;44.350;9.222;2023-04-24T01:13:07;100832.78;;;15.27;100.00
32324;BME280;25666;44.350;9.222;2023-04-24T01:15:33;100823.50;;;15.23;100.00
32324;BME280;25666;44.350;9.222;2023-04-24T01:17:58;100808.69;;;15.23;100.00
32324;BME280;25666;44.350;9.222;2023-04-24T01:20:25;100812.34;;;15.27;100.00
32324;BME280;25666;44.350;9.222;2023-04-24T01:22:51;100804.44;;;15.36;100.00
32324;BME280;25666;44.350;9.222;2023-04-24T01:25:18;100808.78;;;15.30;100.00
32324;BME280;25666;44.350;9.222;2023-04-24T01:27:43;100802.75;;;15.28;100.00
32324;BME280;25666;44.350;9.222;2023-04-24T01:30:11;100806.69;;;15.23;100.00
32324;BME280;25666;44.350;9.222;2023-04-24T01:32:37;100800.72;;;15.25;100.00
32324;BME280;25666;44.350;9.222;2023-04-24T01:35:03;100790.78;;;15.31;100.00
32324;BME280;25666;44.350;9.222;2023-04-24T01:37:29;100791.59;;;15.31;100.00
32324;BME280;25666;44.350;9.222;2023-04-24T01:39:55;100793.53;;;15.27;100.00
32324;BME280;25666;44.350;9.222;2023-04-24T01:42:21;100787.16;;;15.30;100.00
32324;BME280;25666;44.350;9.222;2023-04-24T01:44:47;100783.94;;;15.28;100.00
32324;BME280;25666;44.350;9.222;2023-04-24T01:47:12;100781.50;;;15.27;100.00
32324;BME280;25666;44.350;9.222;2023-04-24T01:49:39;100765.28;;;15.13;100.00
32324;BME280;25666;44.350;9.222;2023-04-24T01:52:04;100762.47;;;15.10;100.00
32324;BME280;25666;44.350;9.222;2023-04-24T01:54:30;100750.91;;;15.15;100.00
32324;BME280;25666;44.350;9.222;2023-04-24T01:56:55;100748.91;;;15.15;100.00
32324;BME280;25666;44.350;9.222;2023-04-24T01:59:21;100741.78;;;15.21;100.00
32324;BME280;25666;44.350;9.222;2023-04-24T02:01:48;100729.75;;;15.21;100.00
32324;BME280;25666;44.350;9.222;2023-04-24T02:04:14;100724.34;;;15.05;100.00
32324;BME280;25666;44.350;9.222;2023-04-24T02:06:40;100721.50;;;15.01;100.00
32324;BME280;25666;44.350;9.222;2023-04-24T02:09:06;100733.38;;;14.91;100.00
32324;BME280;25666;44.350;9.222;2023-04-24T02:11:31;100733.88;;;14.97;100.00
32324;BME280;25666;44.350;9.222;2023-04-24T02:13:57;100739.50;;;15.00;100.00
32324;BME280;25666;44.350;9.222;2023-04-24T02:16:22;100747.94;;;15.04;100.00
32324;BME280;25666;44.350;9.222;2023-04-24T02:18:49;100738.47;;;15.12;100.00
32324;BME280;25666;44.350;9.222;2023-04-24T02:21:16;100729.00;;;15.24;100.00
32324;BME280;25666;44.350;9.222;2023-04-24T02:23:42;100728.34;;;15.37;100.00
32324;BME280;25666;44.350;9.222;2023-04-24T02:26:07;100730.41;;;15.40;100.00
32324;BME280;25666;44.350;9.222;2023-04-24T02:28:32;100730.25;;;15.30;100.00
32324;BME280;25666;44.350;9.222;2023-04-24T02:30:58;100730.25;;;15.30;100.00
32324;BME280;25666;44.350;9.222;2023-04-24T02:33:23;100731.97;;;15.38;100.00
32324;BME280;25666;44.350;9.222;2023-04-24T02:35:49;100729.50;;;15.33;100.00
32324;BME280;25666;44.350;9.222;2023-04-24T02:38:15;100721.16;;;15.40;100.00
32324;BME280;25666;44.350;9.222;2023-04-24T02:40:42;100710.41;;;15.45;100.00
32324;BME280;25666;44.350;9.222;2023-04-24T02:43:09;100711.28;;;15.49;100.00
32324;BME280;25666;44.350;9.222;2023-04-24T02:45:34;100709.75;;;15.56;100.00
32324;BME280;25666;44.350;9.222;2023-04-24T02:48:00;100713.41;;;15.60;100.00
32324;BME280;25666;44.350;9.222;2023-04-24T02:50:25;100713.41;;;15.63;100.00
32324;BME280;25666;44.350;9.222;2023-04-24T02:52:51;100712.63;;;15.63;100.00
32324;BME280;25666;44.350;9.222;2023-04-24T02:55:16;100718.75;;;15.72;100.00
32324;BME280;25666;44.350;9.222;2023-04-24T02:57:42;100716.66;;;15.65;100.00
32324;BME280;25666;44.350;9.222;2023-04-24T03:00:08;100696.59;;;15.63;100.00
32324;BME280;25666;44.350;9.222;2023-04-24T03:02:34;100696.22;;;15.65;100.00
32324;BME280;25666;44.350;9.222;2023-04-24T03:05:00;100690.97;;;15.63;100.00
32324;BME280;25666;44.350;9.222;2023-04-24T03:07:25;100697.78;;;15.62;100.00
32324;BME280;25666;44.350;9.222;2023-04-24T03:09:51;100694.50;;;15.53;100.00
32324;BME280;25666;44.350;9.222;2023-04-24T03:12:16;100691.59;;;15.46;100.00
32324;BME280;25666;44.350;9.222;2023-04-24T03:14:43;100673.84;;;15.38;100.00
32324;BME280;25666;44.350;9.222;2023-04-24T03:17:08;100675.88;;;15.41;100.00
32324;BME280;25666;44.350;9.222;2023-04-24T03:19:34;100687.06;;;15.34;100.00
32324;BME280;25666;44.350;9.222;2023-04-24T03:22:04;100684.66;;;15.36;100.00
32324;BME280;25666;44.350;9.222;2023-04-24T03:24:30;100690.63;;;15.31;100.00
32324;BME280;25666;44.350;9.222;2023-04-24T03:26:57;100692.50;;;15.20;100.00
32324;BME280;25666;44.350;9.222;2023-04-24T03:29:54;100702.06;;;15.16;100.00
32324;BME280;25666;44.350;9.222;2023-04-24T03:32:24;100698.34;;;15.08;100.00
32324;BME280;25666;44.350;9.222;2023-04-24T03:34:50;100708.50;;;14.86;100.00
32324;BME280;25666;44.350;9.222;2023-04-24T03:37:16;100701.19;;;14.78;100.00
32324;BME280;25666;44.350;9.222;2023-04-24T03:39:48;100698.97;;;14.94;100.00
32324;BME280;25666;44.350;9.222;2023-04-24T03:42:15;100689.38;;;14.95;100.00
32324;BME280;25666;44.350;9.222;2023-04-24T03:44:49;100703.81;;;14.97;100.00
32324;BME280;25666;44.350;9.222;2023-04-24T03:47:15;100692.69;;;15.05;100.00
32324;BME280;25666;44.350;9.222;2023-04-24T03:49:41;100680.25;;;15.02;100.00
32324;BME280;25666;44.350;9.222;2023-04-24T03:52:08;100667.47;;;15.05;100.00
32324;BME280;25666;44.350;9.222;2023-04-24T03:54:33;100657.47;;;15.07;100.00
32324;BME280;25666;44.350;9.222;2023-04-24T03:56:59;100649.44;;;15.02;100.00
32324;BME280;25666;44.350;9.222;2023-04-24T03:59:26;100649.78;;;14.97;100.00
32324;BME280;25666;44.350;9.222;2023-04-24T04:02:08;100658.56;;;14.95;100.00
32324;BME280;25666;44.350;9.222;2023-04-24T04:04:33;100665.34;;;14.94;100.00
32324;BME280;25666;44.350;9.222;2023-04-24T04:06:59;100668.50;;;14.89;100.00
32324;BME280;25666;44.350;9.222;2023-04-24T04:09:28;100667.22;;;14.83;100.00
32324;BME280;25666;44.350;9.222;2023-04-24T04:11:54;100665.53;;;14.79;100.00
32324;BME280;25666;44.350;9.222;2023-04-24T04:14:21;100673.59;;;14.80;100.00
32324;BME280;25666;44.350;9.222;2023-04-24T04:16:47;100665.19;;;14.80;100.00
32324;BME280;25666;44.350;9.222;2023-04-24T04:19:13;100678.41;;;14.54;100.00
32324;BME280;25666;44.350;9.222;2023-04-24T04:21:38;100664.94;;;14.63;100.00
32324;BME280;25666;44.350;9.222;2023-04-24T04:24:11;100661.66;;;14.57;100.00
32324;BME280;25666;44.350;9.222;2023-04-24T04:26:41;100664.13;;;14.62;100.00
32324;BME280;25666;44.350;9.222;2023-04-24T04:29:12;100665.31;;;14.61;100.00
32324;BME280;25666;44.350;9.222;2023-04-24T04:31:41;100662.94;;;14.63;100.00
32324;BME280;25666;44.350;9.222;2023-04-24T04:34:10;100668.59;;;14.67;100.00
32324;BME280;25666;44.350;9.222;2023-04-24T04:36:38;100676.94;;;14.63;100.00
32324;BME280;25666;44.350;9.222;2023-04-24T04:39:31;100673.78;;;14.65;100.00
32324;BME280;25666;44.350;9.222;2023-04-24T04:42:00;100677.00;;;14.67;100.00
32324;BME280;25666;44.350;9.222;2023-04-24T04:44:31;100692.16;;;14.62;100.00
32324;BME280;25666;44.350;9.222;2023-04-24T04:46:58;100689.78;;;14.64;100.00
32324;BME280;25666;44.350;9.222;2023-04-24T04:49:28;100696.59;;;14.67;100.00
32324;BME280;25666;44.350;9.222;2023-04-24T04:51:54;100701.09;;;14.71;100.00
32324;BME280;25666;44.350;9.222;2023-04-24T04:54:21;100700.75;;;14.76;100.00
32324;BME280;25666;44.350;9.222;2023-04-24T04:56:46;100707.56;;;14.75;100.00
32324;BME280;25666;44.350;9.222;2023-04-24T04:59:11;100703.53;;;14.76;100.00
32324;BME280;25666;44.350;9.222;2023-04-24T05:01:38;100705.59;;;14.79;100.00
32324;BME280;25666;44.350;9.222;2023-04-24T05:04:06;100708.44;;;14.83;100.00
32324;BME280;25666;44.350;9.222;2023-04-24T05:06:31;100707.56;;;14.79;100.00
32324;BME280;25666;44.350;9.222;2023-04-24T05:08:57;100710.88;;;14.84;100.00
32324;BME280;25666;44.350;9.222;2023-04-24T05:11:35;100702.69;;;15.02;100.00
32324;BME280;25666;44.350;9.222;2023-04-24T05:14:01;100697.88;;;15.02;100.00
32324;BME280;25666;44.350;9.222;2023-04-24T05:16:45;100695.84;;;14.99;100.00
32324;BME280;25666;44.350;9.222;2023-04-24T05:19:12;100702.69;;;15.02;100.00
32324;BME280;25666;44.350;9.222;2023-04-24T05:21:40;100704.16;;;14.92;100.00
32324;BME280;25666;44.350;9.222;2023-04-24T05:24:07;100708.25;;;14.98;100.00
32324;BME280;25666;44.350;9.222;2023-04-24T05:26:48;100718.69;;;15.01;100.00
32324;BME280;25666;44.350;9.222;2023-04-24T05:29:17;100719.66;;;15.16;100.00
32324;BME280;25666;44.350;9.222;2023-04-24T05:31:44;100718.16;;;15.22;100.00
32324;BME280;25666;44.350;9.222;2023-04-24T05:34:10;100710.22;;;15.28;100.00
32324;BME280;25666;44.350;9.222;2023-04-24T05:36:39;100714.75;;;15.39;100.00
32324;BME280;25666;44.350;9.222;2023-04-24T05:39:04;100714.78;;;15.80;100.00
32324;BME280;25666;44.350;9.222;2023-04-24T05:41:30;100712.31;;;16.15;100.00
32324;BME280;25666;44.350;9.222;2023-04-24T05:43:56;100700.84;;;16.34;100.00
32324;BME280;25666;44.350;9.222;2023-04-24T05:46:21;100712.88;;;15.87;100.00
32324;BME280;25666;44.350;9.222;2023-04-24T05:48:47;100716.38;;;17.65;100.00
32324;BME280;25666;44.350;9.222;2023-04-24T05:51:12;100688.31;;;20.03;100.00
32324;BME280;25666;44.350;9.222;2023-04-24T05:53:38;100686.66;;;21.24;100.00
32324;BME280;25666;44.350;9.222;2023-04-24T05:56:04;100693.63;;;22.04;100.00
32324;BME280;25666;44.350;9.222;2023-04-24T05:58:30;100687.69;;;23.98;100.00
32324;BME280;25666;44.350;9.222;2023-04-24T06:00:56;100688.22;;;26.07;100.00
32324;BME280;25666;44.350;9.222;2023-04-24T06:03:24;100693.53;;;27.34;100.00
32324;BME280;25666;44.350;9.222;2023-04-24T06:05:50;100699.50;;;28.68;100.00
32324;BME280;25666;44.350;9.222;2023-04-24T06:08:16;100697.84;;;28.31;100.00
32324;BME280;25666;44.350;9.222;2023-04-24T06:10:43;100700.75;;;27.69;100.00
32324;BME280;25666;44.350;9.222;2023-04-24T06:13:09;100701.00;;;27.53;100.00
32324;BME280;25666;44.350;9.222;2023-04-24T06:15:38;100700.31;;;28.10;100.00
32324;BME280;25666;44.350;9.222;2023-04-24T06:18:06;100692.19;;;27.26;100.00
32324;BME280;25666;44.350;9.222;2023-04-24T06:20:32;100703.56;;;27.91;100.00
32324;BME280;25666;44.350;9.222;2023-04-24T06:22:58;100707.78;;;28.08;100.00
32324;BME280;25666;44.350;9.222;2023-04-24T06:25:26;100705.00;;;27.95;100.00
32324;BME280;25666;44.350;9.222;2023-04-24T06:27:52;100707.81;;;28.26;100.00
32324;BME280;25666;44.350;9.222;2023-04-24T06:30:18;100700.41;;;30.40;79.42
32324;BME280;25666;44.350;9.222;2023-04-24T06:32:43;100699.44;;;30.34;71.32
32324;BME280;25666;44.350;9.222;2023-04-24T06:35:09;100699.91;;;30.08;71.76
32324;BME280;25666;44.350;9.222;2023-04-24T06:37:35;100701.78;;;29.88;74.49
32324;BME280;25666;44.350;9.222;2023-04-24T06:40:01;100693.59;;;29.95;74.33
32324;BME280;25666;44.350;9.222;2023-04-24T06:42:27;100692.63;;;30.78;67.67
32324;BME280;25666;44.350;9.222;2023-04-24T06:44:52;100696.91;;;31.80;60.17
32324;BME280;25666;44.350;9.222;2023-04-24T06:47:18;100701.63;;;32.47;55.17
32324;BME280;25666;44.350;9.222;2023-04-24T06:49:44;100705.53;;;33.76;50.32
32324;BME280;25666;44.350;9.222;2023-04-24T06:52:09;100701.00;;;34.91;44.51
32324;BME280;25666;44.350;9.222;2023-04-24T06:54:35;100698.59;;;34.84;44.05
32324;BME280;25666;44.350;9.222;2023-04-24T06:57:00;100690.72;;;34.85;39.77
32324;BME280;25666;44.350;9.222;2023-04-24T06:59:27;100699.81;;;35.31;37.88
32324;BME280;25666;44.350;9.222;2023-04-24T07:01:54;100691.75;;;35.58;37.47
32324;BME280;25666;44.350;9.222;2023-04-24T07:04:19;100689.88;;;36.05;36.32
32324;BME280;25666;44.350;9.222;2023-04-24T07:06:45;100688.56;;;36.11;36.60
32324;BME280;25666;44.350;9.222;2023-04-24T07:09:11;100688.56;;;35.94;35.52
32324;BME280;25666;44.350;9.222;2023-04-24T07:11:38;100689.59;;;36.03;34.91
32324;BME280;25666;44.350;9.222;2023-04-24T07:14:06;100684.25;;;36.51;34.17
32324;BME280;25666;44.350;9.222;2023-04-24T07:16:31;100677.47;;;37.41;32.92
32324;BME280;25666;44.350;9.222;2023-04-24T07:18:57;100677.44;;;37.06;32.65
32324;BME280;25666;44.350;9.222;2023-04-24T07:21:22;100669.94;;;36.75;32.74
32324;BME280;25666;44.350;9.222;2023-04-24T07:23:48;100674.59;;;37.00;32.11
32324;BME280;25666;44.350;9.222;2023-04-24T07:26:13;100674.06;;;37.37;32.22
32324;BME280;25666;44.350;9.222;2023-04-24T07:28:40;100666.00;;;36.73;32.34
32324;BME280;25666;44.350;9.222;2023-04-24T07:31:06;100673.69;;;36.65;32.76
32324;BME280;25666;44.350;9.222;2023-04-24T07:33:31;100672.75;;;36.92;32.34
32324;BME280;25666;44.350;9.222;2023-04-24T07:35:57;100680.56;;;36.62;31.74
32324;BME280;25666;44.350;9.222;2023-04-24T07:38:22;100671.22;;;36.06;32.01
32324;BME280;25666;44.350;9.222;2023-04-24T07:40:48;100670.09;;;35.53;33.74
32324;BME280;25666;44.350;9.222;2023-04-24T07:43:14;100676.03;;;34.88;36.17
32324;BME280;25666;44.350;9.222;2023-04-24T07:45:40;100676.88;;;32.75;39.54
32324;BME280;25666;44.350;9.222;2023-04-24T07:48:06;100661.53;;;29.97;48.50
32324;BME280;25666;44.350;9.222;2023-04-24T07:50:31;100676.56;;;26.40;80.85
32324;BME280;25666;44.350;9.222;2023-04-24T07:52:57;100685.13;;;25.10;100.00
32324;BME280;25666;44.350;9.222;2023-04-24T07:55:23;100687.56;;;23.86;100.00
32324;BME280;25666;44.350;9.222;2023-04-24T07:57:48;100686.81;;;23.10;100.00
32324;BME280;25666;44.350;9.222;2023-04-24T08:00:14;100694.44;;;22.27;100.00
32324;BME280;25666;44.350;9.222;2023-04-24T08:02:39;100698.69;;;21.93;100.00
32324;BME280;25666;44.350;9.222;2023-04-24T08:05:06;100700.03;;;21.54;100.00
32324;BME280;25666;44.350;9.222;2023-04-24T08:07:32;100707.09;;;21.05;100.00
32324;BME280;25666;44.350;9.222;2023-04-24T08:09:57;100706.78;;;20.62;100.00
32324;BME280;25666;44.350;9.222;2023-04-24T08:12:24;100715.97;;;20.33;100.00
32324;BME280;25666;44.350;9.222;2023-04-24T08:14:50;100719.88;;;19.94;100.00
32324;BME280;25666;44.350;9.222;2023-04-24T08:17:16;100726.84;;;19.79;100.00
32324;BME280;25666;44.350;9.222;2023-04-24T08:19:42;100733.81;;;19.60;100.00
32324;BME280;25666;44.350;9.222;2023-04-24T08:22:16;100741.13;;;19.47;100.00
32324;BME280;25666;44.350;9.222;2023-04-24T08:24:41;100741.13;;;19.37;100.00
32324;BME280;25666;44.350;9.222;2023-04-24T08:27:08;100744.38;;;19.39;100.00
32324;BME280;25666;44.350;9.222;2023-04-24T08:29:33;100750.78;;;19.53;100.00
32324;BME280;25666;44.350;9.222;2023-04-24T08:31:59;100759.28;;;19.46;100.00
32324;BME280;25666;44.350;9.222;2023-04-24T08:34:24;100757.31;;;19.33;100.00
32324;BME280;25666;44.350;9.222;2023-04-24T08:36:50;100761.38;;;19.21;100.00
32324;BME280;25666;44.350;9.222;2023-04-24T08:39:17;100762.19;;;19.14;100.00
32324;BME280;25666;44.350;9.222;2023-04-24T08:41:43;100761.34;;;19.24;100.00
32324;BME280;25666;44.350;9.222;2023-04-24T08:44:09;100763.34;;;19.27;100.00
32324;BME280;25666;44.350;9.222;2023-04-24T08:46:35;100764.63;;;19.12;100.00
32324;BME280;25666;44.350;9.222;2023-04-24T08:49:02;100764.63;;;19.16;100.00
32324;BME280;25666;44.350;9.222;2023-04-24T08:51:27;100766.25;;;19.17;100.00
32324;BME280;25666;44.350;9.222;2023-04-24T08:53:55;100763.50;;;18.64;100.00
32324;BME280;25666;44.350;9.222;2023-04-24T08:56:22;100768.34;;;18.21;100.00
32324;BME280;25666;44.350;9.222;2023-04-24T08:58:50;100767.13;;;18.15;100.00
32324;BME280;25666;44.350;9.222;2023-04-24T09:01:18;100765.53;;;18.53;100.00
32324;BME280;25666;44.350;9.222;2023-04-24T09:03:47;100767.16;;;18.57;100.00
32324;BME280;25666;44.350;9.222;2023-04-24T09:06:14;100770.38;;;18.63;100.00
32324;BME280;25666;44.350;9.222;2023-04-24T09:08:42;100781.25;;;18.57;100.00
32324;BME280;25666;44.350;9.222;2023-04-24T09:11:09;100773.97;;;18.67;100.00
32324;BME280;25666;44.350;9.222;2023-04-24T09:13:35;100778.03;;;18.62;100.00
32324;BME280;25666;44.350;9.222;2023-04-24T09:16:00;100785.25;;;18.74;100.00
32324;BME280;25666;44.350;9.222;2023-04-24T09:18:26;100784.88;;;18.76;100.00
32324;BME280;25666;44.350;9.222;2023-04-24T09:21:07;100786.06;;;18.67;100.00
32324;BME280;25666;44.350;9.222;2023-04-24T09:23:33;100786.91;;;18.54;100.00
32324;BME280;25666;44.350;9.222;2023-04-24T09:26:00;100789.69;;;18.68;100.00
32324;BME280;25666;44.350;9.222;2023-04-24T09:28:29;100798.56;;;18.63;100.00
32324;BME280;25666;44.350;9.222;2023-04-24T09:31:26;100789.31;;;18.73;100.00
32324;BME280;25666;44.350;9.222;2023-04-24T09:36:33;100800.53;;;18.48;100.00
32324;BME280;25666;44.350;9.222;2023-04-24T09:39:00;100795.34;;;18.57;100.00
32324;BME280;25666;44.350;9.222;2023-04-24T09:41:26;100788.47;;;18.48;100.00
32324;BME280;25666;44.350;9.222;2023-04-24T09:43:54;100789.66;;;18.33;100.00
32324;BME280;25666;44.350;9.222;2023-04-24T09:46:20;100783.63;;;18.24;100.00
32324;BME280;25666;44.350;9.222;2023-04-24T09:48:47;100781.63;;;18.24;100.00
32324;BME280;25666;44.350;9.222;2023-04-24T09:51:13;100788.06;;;18.28;100.00
32324;BME280;25666;44.350;9.222;2023-04-24T09:53:45;100796.09;;;18.33;100.00
32324;BME280;25666;44.350;9.222;2023-04-24T09:56:14;100788.88;;;18.25;100.00
32324;BME280;25666;44.350;9.222;2023-04-24T09:58:40;100792.94;;;18.52;100.00
32324;BME280;25666;44.350;9.222;2023-04-24T10:01:05;100798.13;;;18.36;100.00
32324;BME280;25666;44.350;9.222;2023-04-24T10:03:32;100796.94;;;18.37;100.00
32324;BME280;25666;44.350;9.222;2023-04-24T10:06:03;100804.97;;;18.42;100.00
32324;BME280;25666;44.350;9.222;2023-04-24T10:08:35;100802.16;;;18.35;100.00
32324;BME280;25666;44.350;9.222;2023-04-24T10:11:01;100804.97;;;18.42;100.00
32324;BME280;25666;44.350;9.222;2023-04-24T10:13:28;100801.34;;;18.49;100.00
32324;BME280;25666;44.350;9.222;2023-04-24T10:15:54;100802.59;;;18.55;100.00
32324;BME280;25666;44.350;9.222;2023-04-24T10:18:20;100815.84;;;18.44;100.00
32324;BME280;25666;44.350;9.222;2023-04-24T10:20:47;100807.38;;;18.33;100.00
32324;BME280;25666;44.350;9.222;2023-04-24T10:23:12;100814.25;;;18.32;100.00
32324;BME280;25666;44.350;9.222;2023-04-24T10:25:38;100807.81;;;18.49;100.00
32324;BME280;25666;44.350;9.222;2023-04-24T10:28:19;100808.63;;;18.50;100.00
32324;BME280;25666;44.350;9.222;2023-04-24T10:30:48;100811.44;;;18.32;100.00
32324;BME280;25666;44.350;9.222;2023-04-24T10:33:16;100812.59;;;18.20;100.00
32324;BME280;25666;44.350;9.222;2023-04-24T10:35:45;100816.25;;;18.32;100.00
32324;BME280;25666;44.350;9.222;2023-04-24T10:38:16;100817.84;;;18.33;100.00
32324;BME280;25666;44.350;9.222;2023-04-24T10:40:43;100820.28;;;18.34;100.00
32324;BME280;25666;44.350;9.222;2023-04-24T10:43:09;100821.47;;;18.33;100.00
32324;BME280;25666;44.350;9.222;2023-04-24T10:45:36;100821.44;;;18.08;100.00
32324;BME280;25666;44.350;9.222;2023-04-24T10:48:07;100817.03;;;18.25;100.00
32324;BME280;25666;44.350;9.222;2023-04-24T10:50:45;100823.06;;;18.09;100.00
32324;BME280;25666;44.350;9.222;2023-04-24T10:53:16;100819.44;;;18.16;100.00
32324;BME280;25666;44.350;9.222;2023-04-24T10:55:47;100828.28;;;18.11;100.00
32324;BME280;25666;44.350;9.222;2023-04-24T10:58:14;100832.69;;;17.94;100.00
32324;BME280;25666;44.350;9.222;2023-04-24T11:00:42;100833.50;;;18.02;100.00
32324;BME280;25666;44.350;9.222;2023-04-24T11:03:29;100835.53;;;18.08;100.00
32324;BME280;25666;44.350;9.222;2023-04-24T11:06:04;100836.75;;;18.14;100.00
32324;BME280;25666;44.350;9.222;2023-04-24T11:08:38;100830.25;;;17.89;100.00
32324;BME280;25666;44.350;9.222;2023-04-24T11:11:09;100829.47;;;18.03;100.00
32324;BME280;25666;44.350;9.222;2023-04-24T11:16:32;100831.50;;;18.20;100.00
32324;BME280;25666;44.350;9.222;2023-04-24T11:19:02;100826.69;;;18.13;100.00
32324;BME280;25666;44.350;9.222;2023-04-24T11:21:38;100835.06;;;17.92;100.00
32324;BME280;25666;44.350;9.222;2023-04-24T11:26:57;100841.56;;;18.17;100.00
32324;BME280;25666;44.350;9.222;2023-04-24T11:29:38;100836.34;;;18.12;100.00
32324;BME280;25666;44.350;9.222;2023-04-24T11:35:39;100841.94;;;17.91;100.00
32324;BME280;25666;44.350;9.222;2023-04-24T11:37:43;100842.28;;;17.86;100.00
32324;BME280;25666;44.350;9.222;2023-04-24T11:40:12;100850.84;;;18.25;100.00
32324;BME280;25666;44.350;9.222;2023-04-24T11:42:49;100839.91;;;17.99;100.00
32324;BME280;25666;44.350;9.222;2023-04-24T11:45:23;100845.53;;;17.92;100.00
32324;BME280;25666;44.350;9.222;2023-04-24T11:47:48;100832.66;;;17.91;100.00
32324;BME280;25666;44.350;9.222;2023-04-24T11:50:17;100838.31;;;18.01;100.00
32324;BME280;25666;44.350;9.222;2023-04-24T11:52:45;100841.53;;;18.00;100.00
32324;BME280;25666;44.350;9.222;2023-04-24T11:57:39;100850.81;;;18.14;100.00
32324;BME280;25666;44.350;9.222;2023-04-24T12:00:18;100853.28;;;18.19;100.00
32324;BME280;25666;44.350;9.222;2023-04-24T12:02:44;100851.59;;;17.94;100.00
32324;BME280;25666;44.350;9.222;2023-04-24T12:05:20;100847.19;;;18.00;100.00
32324;BME280;25666;44.350;9.222;2023-04-24T12:07:46;100853.22;;;17.95;100.00
32324;BME280;25666;44.350;9.222;2023-04-24T12:10:12;100852.69;;;17.64;100.00
32324;BME280;25666;44.350;9.222;2023-04-24T12:12:37;100850.69;;;17.69;100.00
32324;BME280;25666;44.350;9.222;2023-04-24T12:15:07;100846.66;;;17.73;100.00
32324;BME280;25666;44.350;9.222;2023-04-24T12:17:34;100841.91;;;17.84;100.00
32324;BME280;25666;44.350;9.222;2023-04-24T12:20:01;100839.53;;;18.00;100.00
32324;BME280;25666;44.350;9.222;2023-04-24T12:22:28;100838.16;;;17.55;100.00
32324;BME280;25666;44.350;9.222;2023-04-24T12:25:01;100838.16;;;17.55;100.00
32324;BME280;25666;44.350;9.222;2023-04-24T12:27:31;100834.78;;;17.32;100.00
32324;BME280;25666;44.350;9.222;2023-04-24T12:29:59;100826.00;;;17.37;100.00
32324;BME280;25666;44.350;9.222;2023-04-24T12:32:25;100826.94;;;17.62;100.00
32324;BME280;25666;44.350;9.222;2023-04-24T12:34:51;100828.91;;;17.55;100.00
32324;BME280;25666;44.350;9.222;2023-04-24T12:37:17;100820.91;;;17.57;100.00
32324;BME280;25666;44.350;9.222;2023-04-24T12:42:28;100819.75;;;17.76;100.00
32324;BME280;25666;44.350;9.222;2023-04-24T12:45:00;100823.34;;;17.69;100.00
32324;BME280;25666;44.350;9.222;2023-04-24T12:47:27;100824.94;;;17.70;100.00
32324;BME280;25666;44.350;9.222;2023-04-24T12:49:53;100824.94;;;17.63;100.00
32324;BME280;25666;44.350;9.222;2023-04-24T12:52:24;100822.56;;;17.72;100.00
32324;BME280;25666;44.350;9.222;2023-04-24T12:54:53;100814.91;;;17.80;100.00
32324;BME280;25666;44.350;9.222;2023-04-24T12:57:18;100820.59;;;17.90;100.00